createdAt,value
2017-12-23T00:02:25.935Z,99799.59
2017-12-23T00:04:54.267Z,99803.26
2017-12-23T00:07:22.596Z,99808.08
2017-12-23T00:09:51.691Z,99799.37
2017-12-23T00:12:20.018Z,99802.20
2017-12-23T00:14:48.349Z,99804.83
2017-12-23T00:17:18.506Z,99804.97
2017-12-23T00:19:46.831Z,99796.41
2017-12-23T00:22:15.168Z,99799.20
2017-12-23T00:24:43.504Z,99805.75
2017-12-23T00:27:11.832Z,99795.59
2017-12-23T00:29:40.162Z,99800.66
2017-12-23T00:32:08.517Z,99788.28
2017-12-23T00:34:37.583Z,99786.71
2017-12-23T00:37:05.884Z,99724.90
2017-12-23T00:39:35.007Z,99788.63
2017-12-23T00:42:03.330Z,99792.38
2017-12-23T00:44:31.665Z,99789.65
2017-12-23T00:46:59.986Z,99774.43
2017-12-23T00:49:28.326Z,99771.23
2017-12-23T00:51:56.653Z,99765.33
2017-12-23T00:54:24.976Z,99765.77
2017-12-23T00:56:53.320Z,99763.15
2017-12-23T00:59:21.671Z,99763.63
2017-12-23T01:01:50.028Z,99763.94
2017-12-23T01:04:18.354Z,99765.02
2017-12-23T01:06:46.953Z,99762.53
2017-12-23T01:09:15.281Z,99759.15
2017-12-23T01:11:44.371Z,99760.88
2017-12-23T01:14:12.707Z,99755.86
2017-12-23T01:16:41.032Z,99755.08
2017-12-23T01:19:09.383Z,99750.88
2017-12-23T01:21:37.710Z,99740.58
2017-12-23T01:24:06.053Z,99742.84
2017-12-23T01:26:34.396Z,99738.27
2017-12-23T01:29:03.497Z,99740.98
2017-12-23T01:31:31.866Z,99733.63
2017-12-23T01:34:00.950Z,99724.14
2017-12-23T01:36:29.279Z,99724.75
2017-12-23T01:38:57.618Z,99719.02
2017-12-23T01:41:25.964Z,99723.12
2017-12-23T01:43:54.316Z,99712.45
2017-12-23T01:46:22.668Z,99714.70
2017-12-23T01:48:51.817Z,99713.42
2017-12-23T01:51:20.139Z,99715.56
2017-12-23T01:53:49.251Z,99719.58
2017-12-23T01:56:17.644Z,99706.70
2017-12-23T01:58:45.961Z,99708.91
2017-12-23T02:01:15.042Z,99704.47
2017-12-23T02:03:43.366Z,99696.84
2017-12-23T02:06:11.707Z,99711.57
2017-12-23T02:08:40.088Z,99708.61
2017-12-23T02:11:08.437Z,99689.09
2017-12-23T02:13:36.764Z,99690.18
2017-12-23T02:16:05.100Z,99684.58
2017-12-23T02:18:33.449Z,99688.11
2017-12-23T02:21:01.772Z,99693.77
2017-12-23T02:23:30.119Z,99695.75
2017-12-23T02:25:58.456Z,99695.55
2017-12-23T02:28:26.802Z,99684.45
2017-12-23T02:30:55.134Z,99672.59
2017-12-23T02:33:23.501Z,99664.62
2017-12-23T02:35:51.826Z,99656.56
2017-12-23T02:38:20.154Z,99647.09
2017-12-23T02:40:49.234Z,99644.80
2017-12-23T02:43:17.567Z,99652.02
2017-12-23T02:45:45.886Z,99657.89
2017-12-23T02:48:14.198Z,99660.05
2017-12-23T02:50:42.533Z,99657.72
2017-12-23T02:53:10.877Z,99649.56
2017-12-23T02:55:39.210Z,99650.63
2017-12-23T02:58:07.549Z,99650.05
2017-12-23T03:00:35.894Z,99648.91
2017-12-23T03:03:04.233Z,99646.35
2017-12-23T03:05:32.560Z,99631.80
2017-12-23T03:08:00.905Z,99625.72
2017-12-23T03:10:29.234Z,99613.02
2017-12-23T03:12:57.565Z,99610.59
2017-12-23T03:15:25.915Z,99612.77
2017-12-23T03:17:54.297Z,99606.63
2017-12-23T03:20:22.639Z,99608.70
2017-12-23T03:22:50.975Z,99616.22
2017-12-23T03:25:19.309Z,99618.34
2017-12-23T03:27:47.653Z,99613.45
2017-12-23T03:30:15.991Z,99613.11
2017-12-23T03:32:44.345Z,99617.16
2017-12-23T03:35:12.685Z,99614.16
2017-12-23T03:37:41.022Z,99608.77
2017-12-23T03:40:09.410Z,99608.84
2017-12-23T03:42:37.749Z,99612.01
2017-12-23T03:45:06.077Z,99614.80
2017-12-23T03:47:34.408Z,99611.07
2017-12-23T03:50:02.743Z,99601.41
2017-12-23T03:52:31.083Z,99600.86
2017-12-23T03:54:59.424Z,99599.72
2017-12-23T03:57:27.774Z,99607.27
2017-12-23T03:59:56.117Z,99610.17
2017-12-23T04:02:24.461Z,99604.13
2017-12-23T04:04:52.792Z,99609.93
2017-12-23T04:07:21.140Z,99598.37
2017-12-23T04:09:49.527Z,99592.04
2017-12-23T04:12:18.630Z,99594.65
2017-12-23T04:14:46.956Z,99594.38
2017-12-23T04:17:15.300Z,99603.56
2017-12-23T04:19:43.636Z,99600.58
2017-12-23T04:22:11.989Z,99595.81
2017-12-23T04:24:40.306Z,99600.46
2017-12-23T04:27:08.644Z,99592.77
2017-12-23T04:29:37.008Z,99591.91
2017-12-23T04:32:05.334Z,99590.45
2017-12-23T04:34:33.668Z,99583.43
2017-12-23T04:37:01.987Z,99588.19
2017-12-23T04:39:31.096Z,99593.22
2017-12-23T04:41:59.426Z,99589.82
2017-12-23T04:44:27.761Z,99588.13
2017-12-23T04:46:56.137Z,99586.19
2017-12-23T04:49:24.477Z,99574.82
2017-12-23T04:51:52.780Z,99577.87
2017-12-23T04:54:21.106Z,99576.09
2017-12-23T04:59:23.894Z,99585.38
2017-12-23T05:01:52.192Z,99585.06
2017-12-23T05:04:20.508Z,99582.64
2017-12-23T05:06:48.821Z,99573.23
2017-12-23T05:09:17.134Z,99563.72
2017-12-23T05:11:45.454Z,99561.64
2017-12-23T05:14:14.539Z,99564.98
2017-12-23T05:16:44.652Z,99558.05
2017-12-23T05:19:13.735Z,99565.63
2017-12-23T05:21:42.075Z,99567.41
2017-12-23T05:24:10.405Z,99571.24
2017-12-23T05:26:39.131Z,99561.00
2017-12-23T05:29:07.475Z,99564.69
2017-12-23T05:31:35.803Z,99556.83
2017-12-23T05:34:04.149Z,99557.09
2017-12-23T05:36:32.497Z,99558.64
2017-12-23T05:39:00.844Z,99549.09
2017-12-23T05:41:29.181Z,99547.84
2017-12-23T05:43:57.502Z,99553.40
2017-12-23T05:46:25.833Z,99537.19
2017-12-23T05:48:54.169Z,99553.92
2017-12-23T05:51:23.274Z,99557.03
2017-12-23T05:53:52.835Z,99548.80
2017-12-23T05:56:21.155Z,99545.17
2017-12-23T05:58:50.226Z,99545.77
2017-12-23T06:01:18.560Z,99546.83
2017-12-23T06:03:46.882Z,99535.95
2017-12-23T06:06:15.752Z,99530.25
2017-12-23T06:08:44.066Z,99533.94
2017-12-23T06:11:13.168Z,99532.95
2017-12-23T06:13:41.495Z,99524.53
2017-12-23T06:16:09.814Z,99524.65
2017-12-23T06:18:38.157Z,99530.06
2017-12-23T06:21:06.501Z,99530.62
2017-12-23T06:23:34.831Z,99525.23
2017-12-23T06:26:03.179Z,99524.23
2017-12-23T06:28:31.535Z,99526.58
2017-12-23T06:30:59.862Z,99514.04
2017-12-23T06:33:28.221Z,99509.51
2017-12-23T06:35:56.567Z,99515.80
2017-12-23T06:38:24.933Z,99509.62
2017-12-23T06:40:53.255Z,99510.81
2017-12-23T06:43:21.609Z,99509.51
2017-12-23T06:45:49.918Z,99509.74
2017-12-23T06:48:18.223Z,99509.91
2017-12-23T06:50:46.538Z,99502.69
2017-12-23T06:53:15.973Z,99509.55
2017-12-23T06:55:44.286Z,99512.50
2017-12-23T06:58:12.619Z,99512.09
2017-12-23T07:00:40.956Z,99508.42
2017-12-23T07:03:09.287Z,99508.99
2017-12-23T07:05:37.622Z,99509.08
2017-12-23T07:08:05.960Z,99507.25
2017-12-23T07:10:34.282Z,99506.55
2017-12-23T07:13:02.611Z,99502.41
2017-12-23T07:15:30.936Z,99505.17
2017-12-23T07:17:59.256Z,99498.23
2017-12-23T07:20:27.592Z,99504.16
2017-12-23T07:22:55.916Z,99508.13
2017-12-23T07:25:24.241Z,99503.90
2017-12-23T07:27:52.581Z,99506.22
2017-12-23T07:30:20.912Z,99498.63
2017-12-23T07:32:49.231Z,99492.45
2017-12-23T07:35:17.552Z,99513.87
2017-12-23T07:37:45.944Z,99518.97
2017-12-23T07:40:14.258Z,99512.56
2017-12-23T07:42:42.584Z,99514.75
2017-12-23T07:45:10.938Z,99513.87
2017-12-23T07:47:39.283Z,99511.09
2017-12-23T07:50:07.626Z,99507.67
2017-12-23T07:52:35.951Z,99498.77
2017-12-23T07:55:04.283Z,99501.91
2017-12-23T07:57:32.611Z,99502.37
2017-12-23T08:00:00.930Z,99499.27
2017-12-23T08:02:29.262Z,99496.23
2017-12-23T08:04:57.585Z,99497.16
2017-12-23T08:07:25.941Z,99499.61
2017-12-23T08:09:55.032Z,99488.34
2017-12-23T08:12:23.377Z,99491.55
2017-12-23T08:14:51.709Z,99492.32
2017-12-23T08:17:20.036Z,99493.17
2017-12-23T08:19:48.377Z,99502.97
2017-12-23T08:22:16.704Z,99503.50
2017-12-23T08:24:45.037Z,99509.23
2017-12-23T08:27:13.373Z,99510.45
2017-12-23T08:29:41.704Z,99522.16
2017-12-23T08:32:10.049Z,99520.80
2017-12-23T08:34:38.419Z,99509.10
2017-12-23T08:37:06.735Z,99508.44
2017-12-23T08:39:35.068Z,99513.33
2017-12-23T08:42:03.395Z,99511.45
2017-12-23T08:44:31.732Z,99513.52
2017-12-23T08:47:00.082Z,99516.00
2017-12-23T08:49:28.391Z,99512.59
2017-12-23T08:51:56.735Z,99510.36
2017-12-23T08:54:25.047Z,99507.89
2017-12-23T08:56:53.385Z,99490.16
2017-12-23T08:59:21.717Z,99493.03
2017-12-23T09:01:50.040Z,99502.34
2017-12-23T09:04:18.652Z,99503.56
2017-12-23T09:06:47.748Z,99497.05
2017-12-23T09:09:16.085Z,99497.48
2017-12-23T09:11:44.407Z,99500.95
2017-12-23T09:14:12.741Z,99511.14
2017-12-23T09:16:41.749Z,99518.95
2017-12-23T09:19:10.077Z,99514.35
2017-12-23T09:21:38.406Z,99510.59
2017-12-23T09:24:06.731Z,99514.30
2017-12-23T09:26:35.097Z,99510.99
2017-12-23T09:29:03.437Z,99510.88
2017-12-23T09:31:31.761Z,99515.41
2017-12-23T09:34:00.083Z,99508.29
2017-12-23T09:36:28.827Z,99512.91
2017-12-23T09:38:57.141Z,99510.16
2017-12-23T09:41:25.483Z,99508.71
2017-12-23T09:43:54.706Z,99501.64
2017-12-23T09:46:23.054Z,99495.47
2017-12-23T09:48:51.371Z,99492.63
2017-12-23T09:51:19.718Z,99490.97
2017-12-23T09:53:48.054Z,99488.59
2017-12-23T09:56:16.389Z,99488.77
2017-12-23T09:58:44.706Z,99484.58
2017-12-23T10:01:14.888Z,99474.05
2017-12-23T10:03:43.212Z,99473.78
2017-12-23T10:06:11.554Z,99472.20
2017-12-23T10:08:39.900Z,99470.80
2017-12-23T10:11:08.237Z,99472.57
2017-12-23T10:13:36.592Z,99468.88
2017-12-23T10:16:04.932Z,99470.73
2017-12-23T10:18:33.261Z,99461.45
2017-12-23T10:21:01.603Z,99452.95
2017-12-23T10:23:29.923Z,99453.64
2017-12-23T10:25:58.250Z,99464.62
2017-12-23T10:28:26.558Z,99460.87
2017-12-23T10:30:54.894Z,99455.47
2017-12-23T10:33:23.215Z,99445.52
2017-12-23T10:35:51.572Z,99438.84
2017-12-23T10:38:19.908Z,99438.81
2017-12-23T10:40:48.241Z,99439.00
2017-12-23T10:43:16.568Z,99440.25
2017-12-23T10:45:44.933Z,99436.80
2017-12-23T10:48:14.033Z,99425.60
2017-12-23T10:50:42.373Z,99433.59
2017-12-23T10:53:10.699Z,99426.55
2017-12-23T10:55:39.007Z,99425.47
2017-12-23T10:58:07.318Z,99425.52
2017-12-23T11:00:35.642Z,99428.77
2017-12-23T11:03:03.982Z,99418.15
2017-12-23T11:05:32.300Z,99418.36
2017-12-23T11:08:00.637Z,99419.01
2017-12-23T11:10:28.971Z,99424.42
2017-12-23T11:12:57.312Z,99422.34
2017-12-23T11:15:25.648Z,99440.80
2017-12-23T11:17:53.981Z,99431.66
2017-12-23T11:20:22.296Z,99428.70
2017-12-23T11:22:50.610Z,99421.48
2017-12-23T11:25:18.927Z,99427.97
2017-12-23T11:27:47.260Z,99424.47
2017-12-23T11:30:16.347Z,99429.02
2017-12-23T11:32:45.481Z,99418.44
2017-12-23T11:35:13.808Z,99417.73
2017-12-23T11:37:42.139Z,99416.80
2017-12-23T11:40:10.462Z,99408.27
2017-12-23T11:42:38.774Z,99405.55
2017-12-23T11:45:07.111Z,99403.12
2017-12-23T11:47:35.454Z,99404.63
2017-12-23T11:50:03.774Z,99407.47
2017-12-23T11:52:32.102Z,99407.05
2017-12-23T11:55:00.476Z,99400.30
2017-12-23T11:57:29.065Z,99403.30
2017-12-23T11:59:57.382Z,99402.36
2017-12-23T12:02:25.718Z,99403.01
2017-12-23T12:04:54.053Z,99399.08
2017-12-23T12:07:22.376Z,99392.80
2017-12-23T12:09:50.725Z,99395.19
2017-12-23T12:12:20.744Z,99393.62
2017-12-23T12:14:49.051Z,99387.28
2017-12-23T12:17:17.426Z,99393.81
2017-12-23T12:19:46.417Z,99395.19
2017-12-23T12:22:14.728Z,99384.21
2017-12-23T12:24:43.073Z,99385.50
2017-12-23T12:27:11.414Z,99383.08
2017-12-23T12:29:40.494Z,99383.80
2017-12-23T12:32:08.806Z,99378.67
2017-12-23T12:34:37.140Z,99377.73
2017-12-23T12:37:07.030Z,99382.02
2017-12-23T12:39:35.351Z,99379.66
2017-12-23T12:42:03.679Z,99387.64
2017-12-23T12:44:32.008Z,99378.46
2017-12-23T12:47:01.112Z,99378.77
2017-12-23T12:49:29.441Z,99374.14
2017-12-23T12:51:58.553Z,99375.19
2017-12-23T12:54:26.890Z,99369.78
2017-12-23T12:56:55.237Z,99373.55
2017-12-23T12:59:23.563Z,99361.39
2017-12-23T13:01:51.907Z,99368.55
2017-12-23T13:04:20.236Z,99360.46
2017-12-23T13:06:48.575Z,99357.84
2017-12-23T13:09:16.890Z,99352.78
2017-12-23T13:11:45.249Z,99362.38
2017-12-23T13:14:13.606Z,99352.48
2017-12-23T13:16:42.644Z,99352.91
2017-12-23T13:19:10.997Z,99347.36
2017-12-23T13:21:39.328Z,99341.19
2017-12-23T13:24:07.649Z,99339.80
2017-12-23T13:26:35.976Z,99342.97
2017-12-23T13:29:04.303Z,99338.14
2017-12-23T13:31:32.646Z,99341.70
2017-12-23T13:34:00.976Z,99338.56
2017-12-23T13:36:29.322Z,99337.02
2017-12-23T13:38:58.241Z,99345.21
2017-12-23T13:41:26.585Z,99343.75
2017-12-23T13:43:54.910Z,99338.95
2017-12-23T13:46:23.254Z,99328.61
2017-12-23T13:48:51.586Z,99341.55
2017-12-23T13:51:20.673Z,99335.52
2017-12-23T13:53:48.994Z,99335.96
2017-12-23T13:56:17.326Z,99338.07
2017-12-23T13:58:45.659Z,99333.95
2017-12-23T14:01:13.989Z,99331.41
2017-12-23T14:03:42.325Z,99334.86
2017-12-23T14:06:10.657Z,99332.25
2017-12-23T14:08:38.982Z,99335.11
2017-12-23T14:11:07.313Z,99337.09
2017-12-23T14:13:36.403Z,99339.16
2017-12-23T14:16:04.728Z,99333.96
2017-12-23T14:18:33.459Z,99330.84
2017-12-23T14:21:01.801Z,99330.63
2017-12-23T14:23:30.125Z,99329.97
2017-12-23T14:25:59.234Z,99337.14
2017-12-23T14:28:27.571Z,99338.08
2017-12-23T14:30:55.904Z,99343.78
2017-12-23T14:33:24.224Z,99343.20
2017-12-23T14:35:52.560Z,99345.53
2017-12-23T14:38:20.887Z,99348.31
2017-12-23T14:40:49.208Z,99339.16
2017-12-23T14:43:17.541Z,99347.17
2017-12-23T14:45:45.861Z,99343.25
2017-12-23T14:48:15.036Z,99337.36
2017-12-23T14:50:43.361Z,99333.88
2017-12-23T14:53:11.710Z,99339.41
2017-12-23T14:55:40.024Z,99333.02
2017-12-23T14:58:08.350Z,99328.45
2017-12-23T15:00:36.671Z,99337.53
2017-12-23T15:03:05.003Z,99338.89
2017-12-23T15:05:33.342Z,99345.20
2017-12-23T15:08:01.690Z,99342.62
2017-12-23T15:10:29.988Z,99338.55
2017-12-23T15:12:58.322Z,99346.95
2017-12-23T15:15:26.643Z,99337.95
2017-12-23T15:17:54.976Z,99330.01
2017-12-23T15:20:23.309Z,99337.26
2017-12-23T15:22:51.646Z,99337.58
2017-12-23T15:25:19.962Z,99332.64
2017-12-23T15:27:48.292Z,99332.23
2017-12-23T15:30:16.626Z,99333.34
2017-12-23T15:32:44.960Z,99335.40
2017-12-23T15:35:14.047Z,99337.58
2017-12-23T15:37:42.378Z,99334.89
2017-12-23T15:40:10.705Z,99344.06
2017-12-23T15:42:39.040Z,99336.23
2017-12-23T15:45:07.358Z,99343.82
2017-12-23T15:47:35.679Z,99342.40
2017-12-23T15:50:03.995Z,99340.91
2017-12-23T15:52:32.389Z,99345.20
2017-12-23T15:55:00.737Z,99337.64
2017-12-23T15:57:29.846Z,99338.70
2017-12-23T15:59:58.164Z,99346.58
2017-12-23T16:02:26.489Z,99352.87
2017-12-23T16:04:55.575Z,99354.12
2017-12-23T16:07:23.884Z,99349.00
2017-12-23T16:09:52.209Z,99357.88
2017-12-23T16:12:20.549Z,99356.84
2017-12-23T16:14:48.871Z,99352.36
2017-12-23T16:17:17.638Z,99354.70
2017-12-23T16:19:45.969Z,99353.70
2017-12-23T16:22:14.309Z,99354.95
2017-12-23T16:24:42.653Z,99357.44
2017-12-23T16:27:10.987Z,99350.78
2017-12-23T16:29:39.323Z,99355.76
2017-12-23T16:32:07.661Z,99355.97
2017-12-23T16:34:35.997Z,99348.44
2017-12-23T16:37:04.324Z,99350.73
2017-12-23T16:39:32.689Z,99356.35
2017-12-23T16:42:01.015Z,99342.27
2017-12-23T16:44:29.329Z,99343.58
2017-12-23T16:46:58.433Z,99347.21
2017-12-23T16:49:27.761Z,99342.92
2017-12-23T16:51:56.097Z,99337.95
2017-12-23T16:54:24.441Z,99333.47
2017-12-23T16:56:52.768Z,99338.95
2017-12-23T16:59:21.073Z,99343.14
2017-12-23T17:01:49.373Z,99342.11
2017-12-23T17:04:17.674Z,99337.52
2017-12-23T17:06:46.877Z,99338.16
2017-12-23T17:09:15.956Z,99341.36
2017-12-23T17:11:44.267Z,99341.33
2017-12-23T17:14:12.609Z,99344.62
2017-12-23T17:16:41.408Z,99342.31
2017-12-23T17:19:09.719Z,99345.44
2017-12-23T17:21:38.044Z,99332.66
2017-12-23T17:24:06.380Z,99341.33
2017-12-23T17:26:34.703Z,99354.90
2017-12-23T17:29:21.094Z,99343.22
2017-12-23T17:31:49.411Z,99346.73
2017-12-23T17:34:17.804Z,99341.97
2017-12-23T17:36:46.103Z,99337.26
2017-12-23T17:39:14.461Z,99334.52
2017-12-23T17:41:42.780Z,99330.02
2017-12-23T17:44:11.126Z,99329.37
2017-12-23T17:46:39.448Z,99333.45
2017-12-23T17:49:07.812Z,99331.79
2017-12-23T17:51:36.167Z,99339.14
2017-12-23T17:54:04.547Z,99332.39
2017-12-23T17:56:33.754Z,99332.59
2017-12-23T17:59:02.119Z,99323.52
2017-12-23T18:01:30.445Z,99321.50
2017-12-23T18:03:58.783Z,99323.27
2017-12-23T18:06:27.872Z,99317.20
2017-12-23T18:08:56.196Z,99308.83
2017-12-23T18:11:24.527Z,99316.41
2017-12-23T18:13:53.651Z,99308.58
2017-12-23T18:16:22.664Z,99305.13
2017-12-23T18:18:51.001Z,99311.23
2017-12-23T18:21:19.393Z,99301.44
2017-12-23T18:23:47.748Z,99298.25
2017-12-23T18:26:16.099Z,99304.85
2017-12-23T18:28:45.202Z,99301.09
2017-12-23T18:31:13.548Z,99296.00
2017-12-23T18:33:41.889Z,99305.37
2017-12-23T18:36:10.222Z,99299.89
2017-12-23T18:38:40.142Z,99299.47
2017-12-23T18:41:09.277Z,99295.43
2017-12-23T18:43:37.644Z,99302.45
2017-12-23T18:46:06.043Z,99295.05
2017-12-23T18:48:34.400Z,99305.95
2017-12-23T18:51:02.751Z,99298.05
2017-12-23T18:53:31.084Z,99301.89
2017-12-23T18:55:59.440Z,99304.02
2017-12-23T18:58:27.860Z,99302.83
2017-12-23T19:00:56.205Z,99298.33
2017-12-23T19:03:24.575Z,99289.12
2017-12-23T19:05:52.921Z,99289.83
2017-12-23T19:08:22.011Z,99300.95
2017-12-23T19:10:50.345Z,99298.20
2017-12-23T19:13:18.774Z,99289.69
2017-12-23T19:15:49.419Z,99289.77
2017-12-23T19:18:17.763Z,99291.02
2017-12-23T19:20:46.169Z,99287.61
2017-12-23T19:23:14.507Z,99289.68
2017-12-23T19:25:42.868Z,99282.84
2017-12-23T19:28:11.191Z,99280.45
2017-12-23T19:30:39.520Z,99275.95
2017-12-23T19:33:07.905Z,99275.98
2017-12-23T19:35:36.301Z,99271.77
2017-12-23T19:38:04.699Z,99272.41
2017-12-23T19:40:33.082Z,99267.36
2017-12-23T19:43:01.433Z,99264.26
2017-12-23T19:45:29.940Z,99265.95
2017-12-23T19:47:58.575Z,99260.95
2017-12-23T19:50:27.013Z,99256.50
2017-12-23T19:52:55.478Z,99252.44
2017-12-23T19:55:24.969Z,99252.10
2017-12-23T19:57:53.550Z,99249.16
2017-12-23T20:00:22.257Z,99247.91
2017-12-23T20:02:50.693Z,99248.23
2017-12-23T20:05:19.168Z,99242.90
2017-12-23T20:07:48.051Z,99248.61
2017-12-23T20:10:16.824Z,99252.86
2017-12-23T20:12:45.470Z,99252.38
2017-12-23T20:15:14.307Z,99250.66
2017-12-23T20:17:42.992Z,99259.57
2017-12-23T20:20:11.919Z,99265.78
2017-12-23T20:22:42.106Z,99264.66
2017-12-23T20:25:11.704Z,99266.98
2017-12-23T20:27:41.187Z,99260.89
2017-12-23T20:30:10.831Z,99252.02
2017-12-23T20:32:40.364Z,99262.97
2017-12-23T20:35:10.128Z,99261.13
2017-12-23T20:37:39.742Z,99263.58
2017-12-23T20:40:10.222Z,99268.52
2017-12-23T20:42:39.853Z,99266.30
2017-12-23T20:45:11.015Z,99276.45
2017-12-23T20:47:41.641Z,99269.23
2017-12-23T20:50:11.376Z,99262.12
2017-12-23T20:52:41.238Z,99260.91
2017-12-23T20:55:11.103Z,99259.84
2017-12-23T20:57:40.869Z,99257.44
2017-12-23T21:00:10.662Z,99263.13
2017-12-23T21:02:40.435Z,99254.80
2017-12-23T21:05:10.179Z,99249.69
2017-12-23T21:07:39.936Z,99246.89
2017-12-23T21:10:10.485Z,99236.61
2017-12-23T21:12:40.333Z,99230.28
2017-12-23T21:15:10.212Z,99226.75
2017-12-23T21:17:39.989Z,99235.54
2017-12-23T21:20:10.457Z,99234.92
2017-12-23T21:22:40.372Z,99237.38
2017-12-23T21:25:10.798Z,99234.11
2017-12-23T21:27:40.586Z,99231.41
2017-12-23T21:30:10.545Z,99225.66
2017-12-23T21:32:40.322Z,99219.33
2017-12-23T21:35:10.259Z,99225.37
2017-12-23T21:37:40.180Z,99215.06
2017-12-23T21:40:09.977Z,99212.33
2017-12-23T21:42:39.840Z,99216.00
2017-12-23T21:45:09.632Z,99213.43
2017-12-23T21:47:39.424Z,99204.64
2017-12-23T21:50:09.371Z,99200.02
2017-12-23T21:52:39.362Z,99198.17
2017-12-23T21:55:09.177Z,99195.89
2017-12-23T21:57:39.007Z,99199.09
2017-12-23T22:00:09.159Z,99199.94
2017-12-23T22:02:38.889Z,99191.41
2017-12-23T22:05:08.593Z,99197.75
2017-12-23T22:07:39.069Z,99195.63
2017-12-23T22:10:08.650Z,99191.36
2017-12-23T22:12:38.465Z,99190.95
2017-12-23T22:15:08.105Z,99198.40
2017-12-23T22:17:37.800Z,99199.52
2017-12-23T22:20:07.409Z,99201.36
2017-12-23T22:22:36.884Z,99194.19
2017-12-23T22:25:05.620Z,99208.20
2017-12-23T22:27:34.598Z,99209.95
2017-12-23T22:30:03.098Z,99218.06
2017-12-23T22:32:31.618Z,99218.97
2017-12-23T22:35:00.140Z,99213.44
2017-12-23T22:37:28.593Z,99208.23
2017-12-23T22:39:56.922Z,99202.25
2017-12-23T22:42:38.196Z,99205.53
2017-12-23T22:45:06.558Z,99192.90
2017-12-23T22:47:34.892Z,99197.42
2017-12-23T22:50:03.288Z,99193.19
2017-12-23T22:52:31.636Z,99195.91
2017-12-23T22:54:59.971Z,99188.36
2017-12-23T22:57:28.303Z,99176.39
2017-12-23T22:59:56.642Z,99179.69
2017-12-23T23:02:25.761Z,99184.40
2017-12-23T23:04:54.122Z,99182.56
2017-12-23T23:07:23.227Z,99173.80
2017-12-23T23:09:51.554Z,99171.84
2017-12-23T23:12:19.893Z,99183.19
2017-12-23T23:14:48.215Z,99176.59
2017-12-23T23:17:16.557Z,99180.63
2017-12-23T23:19:44.884Z,99180.50
2017-12-23T23:22:13.244Z,99173.38
2017-12-23T23:24:41.573Z,99175.42
2017-12-23T23:27:09.908Z,99182.98
2017-12-23T23:29:38.237Z,99165.48
2017-12-23T23:32:06.565Z,99174.66
2017-12-23T23:34:34.883Z,99169.33
2017-12-23T23:37:03.202Z,99168.27
2017-12-23T23:39:31.518Z,99166.49
2017-12-23T23:41:59.846Z,99172.91
2017-12-23T23:44:28.176Z,99164.50
2017-12-23T23:46:56.517Z,99160.88
2017-12-23T23:49:24.840Z,99156.62
2017-12-23T23:51:53.941Z,99156.33
2017-12-23T23:54:22.259Z,99155.27
2017-12-23T23:56:50.609Z,99157.86
2017-12-23T23:59:18.940Z,99150.68
